Latest Coastal Weather Observations for Swan Island

IDT60701

Issued at 6:12 pm EDT Sunday 26 March 2017 (issued every 10 minutes, with the page automatically refreshed every 10 minutes)

About coastal observations | Map of coastal stations | Coastal observations for TAS | Marine services | Other Formats
Station Details ID: 092123 Name: SWAN ISLAND Lat: -40.73 Lon: 148.12 Height: 15.0 m
Data from the previous 72 hours. | See also: Recent months at Swan Island
Date/Time
EDT
Temp
°C
Wind Pressure Rain since
9am
mm
Weather Cloud Vis
km
Sea
Height
m
Swell
Dir  Spd
kts
Gust
kts
hPa Trend Height
m
Period
s
Dir
26/06:00pm 19.3 E 8 9 1014.0 - 0.0 - - - - - - -
26/05:30pm 19.9 ESE 9 11 1013.8 - 0.0 - - - - - - -
26/05:00pm 20.2 E 8 11 1013.7 - 0.0 - - - - - - -
26/04:30pm 20.7 E 9 11 1013.8 - 0.0 - - - - - - -
26/04:00pm 20.9 E 9 10 1013.9 - 0.0 - - - - - - -
26/03:30pm 21.1 E 9 11 1014.1 - 0.0 - - - - - - -
26/03:00pm 20.9 E 8 11 1014.3 - 0.0 - - - - - - -
26/02:30pm 21.4 E 9 10 1014.3 - 0.0 - - - - - - -
26/02:00pm 21.9 E 8 10 1014.5 - 0.0 - - - - - - -
26/01:30pm 21.1 ENE 7 9 1014.9 - 0.0 - - - - - - -
26/01:00pm 21.2 E 8 10 1015.1 - 0.0 - - - - - - -
26/12:30pm 21.1 ENE 6 7 1015.4 - 0.0 - - - - - - -
26/12:00pm 20.7 ENE 4 5 1015.6 - 0.0 - - - - - - -
26/11:30am 20.8 ENE 5 5 1015.4 - 0.0 - - - - - - -
26/11:00am 20.4 ENE 4 5 1015.4 - 0.0 - - - - - - -
26/10:30am 19.8 E 3 4 1015.1 - 0.0 - - - - - - -
26/10:00am 18.6 ESE 2 3 1015.0 - 0.0 - - - - - - -
26/09:30am 18.1 SSE 2 3 1014.9 - 0.0 - - - - - - -
26/09:00am 17.1 SSE 3 4 1014.7 - 2.0 - - - - - - -
26/08:30am 16.9 SSE 3 5 1014.5 - 2.0 - - - - - - -
26/08:00am 16.1 SSE 4 5 1014.3 - 2.0 - - - - - - -
26/07:30am 15.6 SSE 5 5 1014.0 - 2.0 - - - - - - -
26/07:00am 15.6 S 5 6 1013.6 - 2.0 - - - - - - -
26/06:30am 15.8 SSE 4 5 1013.3 - 2.0 - - - - - - -
26/06:00am 15.8 SSE 4 5 1012.9 - 1.8 - - - - - - -
26/05:30am 15.9 S 4 5 1012.8 - 1.8 - - - - - - -
26/05:00am 16.0 S 4 5 1012.7 - 1.8 - - - - - - -
26/04:30am 16.1 S 4 6 1012.7 - 1.8 - - - - - - -
26/04:00am 16.3 S 4 5 1012.8 - 1.8 - - - - - - -
26/03:30am 16.1 SSE 4 5 1012.8 - 1.8 - - - - - - -
26/03:00am 16.4 S 5 6 1012.9 - 1.8 - - - - - - -
26/02:30am 16.5 S 5 6 1013.2 - 1.8 - - - - - - -
26/02:00am 16.6 SSW 4 5 1013.3 - 1.8 - - - - - - -
26/01:30am 16.9 CALM 0 0 1013.0 - 1.8 - - - - - - -
26/01:00am 17.0 SSE 4 5 1013.0 - 1.8 - - - - - - -
26/12:30am 17.2 SSE 4 5 1013.0 - 1.8 - - - - - - -
26/12:00am 17.4 SE 4 5 1013.0 - 1.8 - - - - - - -
 
Date/Time
EDT
Temp
°C
Wind Pressure Rain since
9am
mm
Weather Cloud Vis
km
Sea
Height
m
Swell
Dir  Spd
kts
Gust
kts
hPa Trend Height
m
Period
s
Dir
25/11:30pm 17.3 SE 5 5 1013.2 - 1.8 - - - - - - -
25/11:00pm 17.4 SE 6 7 1013.0 - 1.8 - - - - - - -
25/10:30pm 17.6 SE 5 6 1013.1 - 1.8 - - - - - - -
25/10:00pm 17.5 S 4 5 1013.2 - 1.8 - - - - - - -
25/09:30pm 17.8 S 5 5 1012.9 - 1.8 - - - - - - -
25/09:00pm 18.2 S 5 6 1012.4 - 1.8 - - - - - - -
25/08:30pm 18.1 S 4 4 1012.2 - 1.8 - - - - - - -
25/08:00pm 18.4 CALM 0 1 1012.0 - 1.8 - - - - - - -
25/07:30pm 18.6 E 2 3 1011.5 - 1.8 - - - - - - -
25/07:00pm 18.9 ENE 3 4 1011.3 - 1.8 - - - - - - -
25/06:30pm 18.8 ESE 3 4 1011.4 - 1.8 - - - - - - -
25/06:00pm 18.7 ESE 6 7 1011.4 - 1.8 - - - - - - -
25/05:30pm 18.9 SE 5 6 1011.7 - 1.8 - - - - - - -
25/05:00pm 18.9 SE 6 7 1011.7 - 1.8 - - - - - - -
25/04:30pm 19.3 E 5 6 1011.8 - 1.8 - - - - - - -
25/04:00pm 19.3 ENE 6 7 1011.9 - 1.6 - - - - - - -
25/03:30pm 19.6 ENE 8 10 1012.0 - 1.4 - - - - - - -
25/03:00pm 19.8 NE 9 12 1012.1 - 1.4 - - - - - - -
25/02:30pm 20.5 ENE 8 10 1012.3 - 1.4 - - - - - - -
25/02:00pm 20.2 E 6 8 1012.8 - 1.4 - - - - - - -
25/01:30pm 19.4 E 5 6 1013.2 - 1.4 - - - - - - -
25/01:00pm 18.8 E 8 10 1013.6 - 1.4 - - - - - - -
25/12:30pm 18.9 ENE 9 13 1013.9 - 1.4 - - - - - - -
25/12:00pm 18.1 ENE 16 19 1013.6 - 1.4 - - - - - - -
25/11:30am 17.7 E 10 12 1014.9 - 1.4 - - - - - - -
25/11:00am 17.3 SE 6 7 1015.5 - 1.4 - - - - - - -
25/10:30am 17.0 SE 7 9 1015.4 - 1.4 - - - - - - -
25/10:00am 16.9 SSE 6 7 1015.7 - 0.8 - - - - - - -
25/09:30am 17.2 S 5 8 1015.7 - 0.0 - - - - - - -
25/09:00am 18.4 NE 1 3 1015.5 - 0.0 - - - - - - -
25/08:30am 18.0 ENE 3 4 1015.3 - 0.0 - - - - - - -
25/08:00am 17.6 ENE 8 10 1015.2 - 0.0 - - - - - - -
25/07:30am 17.8 NNE 10 13 1014.6 - 0.0 - - - - - - -
25/07:00am 17.7 NE 11 16 1015.0 - 0.0 - - - - - - -
25/06:30am 17.9 NE 8 11 1015.2 - 0.0 - - - - - - -
25/06:00am 17.8 NE 12 15 1015.5 - 0.0 - - - - - - -
25/05:30am 17.8 NE 14 17 1015.8 - 0.0 - - - - - - -
25/05:00am 17.6 ENE 15 18 1015.8 - 0.0 - - - - - - -
25/04:30am 17.5 NE 16 19 1015.8 - 0.0 - - - - - - -
25/04:00am 17.2 NE 15 19 1016.3 - 0.0 - - - - - - -
25/03:30am 17.1 NE 12 16 1017.0 - 0.0 - - - - - - -
25/03:00am 17.0 NE 13 16 1017.2 - 0.0 - - - - - - -
25/02:30am 17.1 ENE 15 19 1017.5 - 0.0 - - - - - - -
25/02:00am 16.9 NE 14 18 1018.4 - 0.0 - - - - - - -
25/01:30am 16.9 ENE 15 19 1018.2 - 0.0 - - - - - - -
25/01:00am 16.8 NE 14 17 1018.8 - 0.0 - - - - - - -
25/12:30am 16.8 NE 12 15 1019.5 - 0.0 - - - - - - -
25/12:00am 16.7 ENE 15 18 1019.4 - 0.0 - - - - - - -
 
Date/Time
EDT
Temp
°C
Wind Pressure Rain since
9am
mm
Weather Cloud Vis
km
Sea
Height
m
Swell
Dir  Spd
kts
Gust
kts
hPa Trend Height
m
Period
s
Dir
24/11:30pm 16.8 NE 11 13 1020.1 - 0.0 - - - - - - -
24/11:00pm 16.9 ENE 12 16 1020.4 - 0.0 - - - - - - -
24/10:30pm 16.8 E 15 18 1019.8 - 0.0 - - - - - - -
24/10:00pm 16.5 E 12 15 1020.7 - 0.0 - - - - - - -
24/09:30pm 16.0 E 11 15 1020.7 - 0.0 - - - - - - -
24/09:00pm 15.9 ESE 11 13 1021.0 - 0.0 - - - - - - -
24/08:30pm 15.8 ESE 9 11 1020.8 - 0.0 - - - - - - -
24/08:00pm 15.7 ESE 10 12 1020.6 - 0.0 - - - - - - -
24/07:30pm 15.7 ESE 10 12 1021.2 - 0.0 - - - - - - -
24/07:00pm 15.8 ESE 13 16 1020.9 - 0.0 - - - - - - -
24/06:30pm 15.9 ESE 14 17 1020.5 - 0.0 - - - - - - -
24/06:00pm 16.1 ESE 13 16 1020.8 - 0.0 - - - - - - -
24/05:30pm 16.3 ESE 13 16 1021.0 - 0.0 - - - - - - -
24/05:00pm 16.3 ESE 13 17 1021.0 - 0.0 - - - - - - -
24/04:30pm 16.3 ESE 13 17 1021.1 - 0.0 - - - - - - -
24/04:00pm 17.1 SE 13 17 1021.9 - 0.0 - - - - - - -
24/03:30pm 18.3 ESE 11 14 1022.1 - 0.0 - - - - - - -
24/03:00pm 18.0 ESE 11 15 1022.4 - 0.0 - - - - - - -
24/02:30pm 18.0 ESE 10 12 1022.8 - 0.0 - - - - - - -
24/02:00pm 18.9 ESE 11 14 1022.9 - 0.0 - - - - - - -
24/01:30pm 18.4 ESE 11 14 1023.2 - 0.0 - - - - - - -
24/01:00pm 19.1 ESE 12 14 1023.3 - 0.0 - - - - - - -
24/12:30pm 17.5 ESE 14 16 1023.4 - 0.0 - - - - - - -
24/12:00pm 17.2 ESE 13 16 1024.1 - 0.0 - - - - - - -
24/11:30am 17.4 ESE 14 19 1024.4 - 0.0 - - - - - - -
24/11:00am 17.2 ESE 13 16 1024.5 - 0.0 - - - - - - -
24/10:30am 16.8 SE 10 14 1024.4 - 0.0 - - - - - - -
24/10:00am 16.3 SE 12 15 1024.0 - 0.0 - - - - - - -
24/09:30am 15.1 SSE 10 13 1023.9 - 0.0 - - - - - - -
24/09:00am 15.2 SSE 10 14 1024.1 - 0.0 - - - - - - -
24/08:30am 15.3 SSE 10 13 1023.8 - 0.0 - - - - - - -
24/08:00am 14.8 SSE 8 10 1023.5 - 0.0 - - - - - - -
24/07:30am 14.5 SSE 10 13 1023.2 - 0.0 - - - - - - -
24/07:00am 14.7 SSE 9 11 1023.1 - 0.0 - - - - - - -
24/06:30am 14.8 SSE 8 11 1023.3 - 0.0 - - - - - - -
24/06:00am 14.8 SSE 10 13 1023.5 - 0.0 - - - - - - -
24/05:30am 14.9 SSE 11 14 1023.4 - 0.0 - - - - - - -
24/05:00am 14.8 SSE 9 11 1023.1 - 0.0 - - - - - - -
24/04:30am 14.6 S 8 11 1023.1 - 0.0 - - - - - - -
24/04:00am 14.9 SSE 10 13 1023.1 - 0.0 - - - - - - -
24/03:30am 14.6 S 7 11 1023.2 - 0.0 - - - - - - -
24/03:00am 14.2 SSE 8 11 1023.2 - 0.0 - - - - - - -
24/02:30am 13.9 SSE 6 8 1023.3 - 0.0 - - - - - - -
24/02:00am 14.1 S 6 9 1023.6 - 0.0 - - - - - - -
24/01:30am 14.9 SSE 8 11 1023.5 - 0.0 - - - - - - -
24/01:00am 15.0 SE 8 11 1023.7 - 0.0 - - - - - - -
24/12:30am 15.5 ESE 10 13 1024.0 - 0.0 - - - - - - -
24/12:00am 15.5 ESE 13 15 1024.6 - 0.0 - - - - - - -
 
Date/Time
EDT
Temp
°C
Wind Pressure Rain since
9am
mm
Weather Cloud Vis
km
Sea
Height
m
Swell
Dir  Spd
kts
Gust
kts
hPa Trend Height
m
Period
s
Dir
23/11:30pm 15.3 ESE 13 17 1025.0 - 0.0 - - - - - - -
23/11:00pm 15.3 ESE 16 19 1024.8 - 0.0 - - - - - - -
23/10:30pm 15.4 ESE 15 18 1025.2 - 0.0 - - - - - - -
23/10:00pm 15.3 SE 13 16 1025.4 - 0.0 - - - - - - -
23/09:30pm 15.6 ESE 13 17 1025.4 - 0.0 - - - - - - -
23/09:00pm 15.7 ESE 17 21 1024.9 - 0.0 - - - - - - -
23/08:30pm 16.1 SE 15 21 1024.2 - 0.0 - - - - - - -
23/08:00pm 16.1 SE 17 21 1024.0 - 0.0 - - - - - - -
23/07:30pm 16.4 SE 17 22 1023.4 - 0.0 - - - - - - -
23/07:00pm 16.3 SE 17 21 1023.4 - 0.0 - - - - - - -
23/06:30pm 16.3 SE 19 22 1023.4 - 0.0 - - - - - - -

Other Formats:

Comma delimited format used in spreadsheet applications
http://www.bom.gov.au/fwo/IDT60701/IDT60701.95985.axf

JavaScript Object Notation format (JSON) in row-major order
http://www.bom.gov.au/fwo/IDT60701/IDT60701.95985.json